createdAt,value
2022-12-26T00:04:55.851Z,4.7
2022-12-26T00:10:38.859Z,5.5
2022-12-26T00:16:22.737Z,4.9
2022-12-26T00:22:05.610Z,5.2
2022-12-26T00:27:48.666Z,5.5
2022-12-26T00:33:31.673Z,4.9
2022-12-26T00:39:14.652Z,4.3
2022-12-26T00:44:57.405Z,4.6
2022-12-26T00:50:40.287Z,5.3
2022-12-26T00:56:23.110Z,3.7
2022-12-26T01:02:06.800Z,4.6
2022-12-26T01:08:19.425Z,4.7
2022-12-26T01:13:52.827Z,4
2022-12-26T01:19:35.569Z,5.3
2022-12-26T01:25:18.351Z,4.3
2022-12-26T01:31:02.893Z,3.6
2022-12-26T01:36:46.678Z,5.1
2022-12-26T01:42:34.497Z,4
2022-12-26T01:48:23.178Z,3.6
2022-12-26T01:54:38.850Z,4.4
2022-12-26T02:00:14.576Z,4.3
2022-12-26T02:05:59.109Z,4.4
2022-12-26T02:11:44.679Z,5.2
2022-12-26T02:17:27.752Z,4
2022-12-26T02:23:19.476Z,3.4
2022-12-26T02:29:21.783Z,3
2022-12-26T02:35:09.444Z,3.9
2022-12-26T02:40:57.646Z,4.8
2022-12-26T02:46:45.017Z,2.7
2022-12-26T02:52:32.242Z,4.4
2022-12-26T02:58:19.558Z,3.1
2022-12-26T03:04:03.849Z,3.2
2022-12-26T03:09:47.502Z,2.8
2022-12-26T03:15:32.062Z,4.5
2022-12-26T03:21:16.988Z,3
2022-12-26T03:27:00.011Z,3.1
2022-12-26T03:32:48.161Z,3.5
2022-12-26T03:38:35.114Z,2.7
2022-12-26T03:44:27.169Z,2.9
2022-12-26T03:50:15.213Z,3.2
2022-12-26T03:56:01.647Z,2.6
2022-12-26T04:01:45.934Z,2.2
2022-12-26T04:07:31.008Z,2.4
2022-12-26T04:13:20.372Z,3.1
2022-12-26T04:19:05.919Z,1.8
2022-12-26T04:24:53.214Z,1.9
2022-12-26T04:30:36.753Z,2.1
2022-12-26T04:36:23.718Z,2.2
2022-12-26T04:42:07.095Z,2
2022-12-26T04:47:49.859Z,1.5
2022-12-26T04:53:32.988Z,1.6
2022-12-26T04:59:15.864Z,1.3
2022-12-26T05:04:58.629Z,2
2022-12-26T05:10:42.269Z,1.7
2022-12-26T05:16:25.626Z,1.7
2022-12-26T05:22:08.574Z,1.7
2022-12-26T05:27:51.761Z,2.2
2022-12-26T05:33:34.838Z,1.5
2022-12-26T05:39:17.724Z,1.2
2022-12-26T05:45:00.576Z,1.7
2022-12-26T05:50:43.314Z,1.2
2022-12-26T05:56:26.234Z,1.1
2022-12-26T06:02:10.620Z,1.6
2022-12-26T06:07:56.684Z,2.8
2022-12-26T06:13:40.627Z,1.5
2022-12-26T06:19:23.667Z,1.4
2022-12-26T06:25:06.880Z,1.6
2022-12-26T06:30:52.561Z,1.5
2022-12-26T06:36:35.759Z,1.6
2022-12-26T06:42:18.628Z,1.1
2022-12-26T06:48:01.414Z,2
2022-12-26T06:53:44.993Z,1.3
2022-12-26T06:59:27.869Z,1.6
2022-12-26T07:05:11.208Z,1.9
2022-12-26T07:10:54.150Z,1.4
2022-12-26T07:16:37.864Z,2.3
2022-12-26T07:22:20.833Z,2.9
2022-12-26T07:28:03.699Z,1.9
2022-12-26T07:33:48.934Z,2.2
2022-12-26T07:39:32.033Z,3.5
2022-12-26T07:45:15.451Z,1.5
2022-12-26T07:51:03.196Z,2.2
2022-12-26T07:56:47.027Z,2.2
2022-12-26T08:02:30.628Z,1.7
2022-12-26T08:08:13.809Z,1.9
2022-12-26T08:13:56.846Z,2.1
2022-12-26T08:19:39.616Z,2.1
2022-12-26T08:25:25.016Z,2.2
2022-12-26T08:31:11.722Z,1.9
2022-12-26T08:36:56.553Z,2.8
2022-12-26T08:43:11.954Z,1.9
2022-12-26T08:48:43.132Z,1.5
2022-12-26T08:54:25.920Z,2.7
2022-12-26T09:00:09.476Z,1.2
2022-12-26T09:05:53.256Z,2.7
2022-12-26T09:11:42.093Z,2.6
2022-12-26T09:17:24.906Z,4
2022-12-26T09:23:07.910Z,1.6
2022-12-26T09:28:50.817Z,4
2022-12-26T09:34:33.598Z,2.1
2022-12-26T09:40:22.718Z,3.6
2022-12-26T09:46:12.346Z,1.2
2022-12-26T09:51:59.371Z,2.2
2022-12-26T09:57:44.945Z,4
2022-12-26T10:03:27.997Z,1.9
2022-12-26T10:09:21.264Z,1.9
2022-12-26T10:15:09.175Z,2.8
2022-12-26T10:20:56.663Z,3.1
2022-12-26T10:26:41.978Z,4.8
2022-12-26T10:32:30.949Z,2.5
2022-12-26T10:38:25.671Z,3
2022-12-26T10:44:08.776Z,2.9
2022-12-26T10:49:51.642Z,2.9
2022-12-26T10:55:37.638Z,2.3
2022-12-26T11:01:38.832Z,2.5
2022-12-26T11:07:22.638Z,3.4
2022-12-26T11:13:07.594Z,2.8
2022-12-26T11:18:53.326Z,1.9
2022-12-26T11:24:37.240Z,2.7
2022-12-26T11:30:25.226Z,2.2
2022-12-26T11:36:12.471Z,4.1
2022-12-26T11:41:56.625Z,3.3
2022-12-26T11:47:39.717Z,3.6
2022-12-26T11:53:24.210Z,3.8
2022-12-26T11:59:17.652Z,3.7
2022-12-26T12:05:02.537Z,4.6
2022-12-26T12:10:51.467Z,4.6
2022-12-26T12:16:42.403Z,4
2022-12-26T12:22:38.582Z,3.8
2022-12-26T12:28:29.894Z,2.8
2022-12-26T12:34:18.165Z,2.1
2022-12-26T12:40:05.756Z,2.6
2022-12-26T12:45:53.220Z,2.8
2022-12-26T12:51:40.892Z,3.9
2022-12-26T12:57:27.499Z,3.4
2022-12-26T13:03:12.420Z,2.5
2022-12-26T13:08:57.669Z,5.5
2022-12-26T13:14:43.204Z,3.4
2022-12-26T13:20:31.274Z,4
2022-12-26T13:26:17.188Z,2
2022-12-26T13:32:00.579Z,2.7
2022-12-26T13:38:00.913Z,2.2
2022-12-26T13:43:48.767Z,3.8
2022-12-26T13:49:33.247Z,4.5
2022-12-26T13:55:31.139Z,5.2
2022-12-26T14:01:19.980Z,1.8
2022-12-26T14:07:17.154Z,2.9
2022-12-26T14:13:08.223Z,3.7
2022-12-26T14:18:55.553Z,3.5
2022-12-26T14:24:40.911Z,2.9
2022-12-26T14:30:26.829Z,5
2022-12-26T14:36:16.478Z,4.2
2022-12-26T14:42:10.501Z,3.3
2022-12-26T14:47:53.630Z,5
2022-12-26T14:53:39.345Z,3
2022-12-26T14:59:28.933Z,4.4
2022-12-26T15:05:16.741Z,4.5
2022-12-26T15:11:08.319Z,6
2022-12-26T15:16:59.015Z,6.7
2022-12-26T15:22:57.776Z,7.3
2022-12-26T15:29:00.139Z,5.3
2022-12-26T15:34:57.357Z,6.3
2022-12-26T15:40:45.399Z,3.8
2022-12-26T15:46:30.889Z,7.4
2022-12-26T15:52:19.775Z,4.4
2022-12-26T15:58:07.921Z,3.3
2022-12-26T16:03:55.731Z,5.2
2022-12-26T16:09:44.445Z,5.8
2022-12-26T16:15:27.607Z,5.7
2022-12-26T16:21:10.653Z,4.4
2022-12-26T16:26:53.526Z,6.8
2022-12-26T16:32:37.409Z,6.1
2022-12-26T16:38:25.725Z,7.8
2022-12-26T16:44:17.755Z,4
2022-12-26T16:50:01.226Z,5.6
2022-12-26T16:55:45.907Z,6.2
2022-12-26T17:01:30.061Z,4.5
2022-12-26T17:07:19.020Z,5.5
2022-12-26T17:13:03.804Z,5.1
2022-12-26T17:18:52.318Z,3.6
2022-12-26T17:24:35.238Z,3.8
2022-12-26T17:30:30.129Z,4.7
2022-12-26T17:37:08.645Z,5.4
2022-12-26T17:42:19.420Z,6.2
2022-12-26T17:48:02.134Z,4.8
2022-12-26T17:53:45.503Z,7.5
2022-12-26T17:59:28.500Z,5.5
2022-12-26T18:05:14.874Z,5.5
2022-12-26T18:10:58.173Z,5.7
2022-12-26T18:16:41.017Z,6
2022-12-26T18:22:23.841Z,4.3
2022-12-26T18:28:07.035Z,4.8
2022-12-26T18:33:50.281Z,5.6
2022-12-26T18:39:33.181Z,5.9
2022-12-26T18:45:16.178Z,7.7
2022-12-26T18:51:01.341Z,5.8
2022-12-26T18:56:44.351Z,5.7
2022-12-26T19:02:28.045Z,6
2022-12-26T19:08:11.023Z,4.1
2022-12-26T19:13:53.747Z,6.6
2022-12-26T19:19:36.751Z,5
2022-12-26T19:25:20.221Z,4.8
2022-12-26T19:31:07.822Z,4.5
2022-12-26T19:36:50.646Z,5.6
2022-12-26T19:42:33.617Z,6.9
2022-12-26T19:48:16.500Z,6.4
2022-12-26T19:53:59.257Z,6.8
2022-12-26T19:59:41.942Z,6.8
2022-12-26T20:05:24.839Z,6.8
2022-12-26T20:11:10.639Z,7.2
2022-12-26T20:17:07.946Z,6.2
2022-12-26T20:22:55.910Z,6.3
2022-12-26T20:28:38.846Z,5.5
2022-12-26T20:34:22.778Z,7.3
2022-12-26T20:40:06.403Z,6.5
2022-12-26T20:45:50.314Z,6.6
2022-12-26T20:51:40.212Z,6.5
2022-12-26T20:57:23.035Z,4.9
2022-12-26T21:03:06.240Z,4.8
2022-12-26T21:08:50.321Z,5.6
2022-12-26T21:14:33.423Z,5.8
2022-12-26T21:20:17.103Z,5.8
2022-12-26T21:26:04.497Z,5.6
2022-12-26T21:31:48.292Z,4.5
2022-12-26T21:37:31.450Z,4.8
2022-12-26T21:43:14.512Z,5.1
2022-12-26T21:48:57.560Z,4.2
2022-12-26T21:54:50.271Z,4.3
2022-12-26T22:00:33.663Z,4
2022-12-26T22:06:21.172Z,4.8
2022-12-26T22:12:06.666Z,5.4
2022-12-26T22:17:49.645Z,4.6
2022-12-26T22:23:32.774Z,4.5
2022-12-26T22:29:15.656Z,6.6
2022-12-26T22:34:58.600Z,4.6
2022-12-26T22:40:41.563Z,3.7
2022-12-26T22:46:24.604Z,4.2
2022-12-26T22:52:16.982Z,6.6
2022-12-26T22:58:04.378Z,6
2022-12-26T23:03:48.252Z,4.4
2022-12-26T23:09:31.711Z,4.7
2022-12-26T23:15:15.894Z,5.4
2022-12-26T23:21:00.362Z,7
2022-12-26T23:26:44.191Z,4.5
2022-12-26T23:32:27.102Z,4.1
2022-12-26T23:38:10.050Z,4.3
2022-12-26T23:43:53.061Z,4.3
2022-12-26T23:49:35.905Z,4.2
2022-12-26T23:55:18.783Z,3.7
